Time;durP1;ratioP1;P1;durP2;ratioP2;P2;SDS_P1;SDS_P2;PMS_P1;PMS_P2;Temp;Humidity;BMP_temperature;BMP_pressure;BME280_temperature;BME280_humidity;BME280_pressure;Samples;Min_cycle;Max_cycle;Signal;HPM_P1;HPM_P2
2022/05/27 00:01:47;;;;;;;12.45;2.95;;;14.80;99.90;;;;;;5072447;28;20052;-37
2022/05/27 00:04:13;;;;;;;8.52;2.95;;;14.80;99.90;;;;;;5065233;28;20401;-37
2022/05/27 00:06:41;;;;;;;12.38;2.72;;;14.70;99.90;;;;;;5067933;28;20124;-36
2022/05/27 00:09:08;;;;;;;9.93;2.75;;;14.70;99.90;;;;;;5072381;28;20396;-36
2022/05/27 00:11:35;;;;;;;8.98;2.42;;;14.70;99.90;;;;;;5055790;28;20055;-36
2022/05/27 00:14:02;;;;;;;7.63;2.50;;;14.60;99.90;;;;;;5067346;28;20053;-36
2022/05/27 00:16:29;;;;;;;8.35;2.28;;;14.70;99.90;;;;;;5052750;28;20051;-36
2022/05/27 00:18:55;;;;;;;8.98;2.33;;;14.60;99.90;;;;;;5065485;28;20055;-36
2022/05/27 00:21:22;;;;;;;7.45;2.40;;;14.60;99.90;;;;;;5061155;28;20389;-36
2022/05/27 00:23:50;;;;;;;5.05;2.20;;;14.60;99.90;;;;;;5061372;28;20046;-35
2022/05/27 00:26:17;;;;;;;6.20;2.28;;;14.60;99.90;;;;;;5053140;28;20041;-35
2022/05/27 00:28:44;;;;;;;10.13;2.40;;;14.50;99.90;;;;;;5058146;28;20440;-35
2022/05/27 00:31:11;;;;;;;12.85;2.38;;;14.50;99.90;;;;;;5067555;28;20470;-35
2022/05/27 00:33:38;;;;;;;7.20;2.55;;;14.50;99.90;;;;;;5060181;28;20052;-35
2022/05/27 00:36:08;;;;;;;7.88;2.30;;;14.50;99.90;;;;;;5071025;28;20071;-35
2022/05/27 00:38:35;;;;;;;7.97;2.78;;;14.40;99.90;;;;;;5062254;28;20563;-36
2022/05/27 00:41:03;;;;;;;9.95;2.30;;;14.50;99.90;;;;;;5065337;28;20055;-36
2022/05/27 00:43:30;;;;;;;6.70;2.53;;;14.40;99.90;;;;;;5053054;28;20049;-35
2022/05/27 00:45:59;;;;;;;7.90;2.42;;;14.40;99.90;;;;;;5051986;28;20549;-35
2022/05/27 00:48:25;;;;;;;6.38;2.50;;;14.40;99.90;;;;;;5058479;28;20048;-35
2022/05/27 00:50:52;;;;;;;10.15;2.90;;;14.40;99.90;;;;;;5052419;28;20049;-35
2022/05/27 00:53:21;;;;;;;11.25;3.42;;;14.40;99.90;;;;;;5052250;28;20404;-35
2022/05/27 00:55:50;;;;;;;11.20;2.88;;;14.40;99.90;;;;;;5056022;28;20053;-35
2022/05/27 00:58:20;;;;;;;8.60;2.83;;;14.40;99.90;;;;;;5070838;28;20183;-35
2022/05/27 01:00:47;;;;;;;8.95;3.30;;;14.30;99.90;;;;;;5067573;28;20400;-35
2022/05/27 01:03:14;;;;;;;10.82;3.58;;;14.30;99.90;;;;;;5065916;28;20059;-35
2022/05/27 01:05:41;;;;;;;11.23;3.70;;;14.30;99.90;;;;;;5071580;28;20061;-35
2022/05/27 01:08:08;;;;;;;7.65;3.08;;;14.30;99.90;;;;;;5071121;28;20063;-35
2022/05/27 01:10:41;;;;;;;11.68;3.17;;;14.30;99.90;;;;;;5072086;28;20056;-35
2022/05/27 01:13:14;;;;;;;13.18;3.67;;;14.30;99.90;;;;;;5064691;28;20045;-36
2022/05/27 01:15:48;;;;;;;9.30;3.00;;;14.30;99.90;;;;;;5056449;28;20514;-36
2022/05/27 01:18:23;;;;;;;10.02;2.83;;;14.30;99.90;;;;;;5064717;28;20480;-36
2022/05/27 01:20:53;;;;;;;11.38;3.05;;;14.30;99.90;;;;;;5067641;28;20132;-36
2022/05/27 01:23:52;;;;;;;9.68;2.92;;;14.20;99.90;;;;;;5069240;28;20079;-36
2022/05/27 01:26:45;;;;;;;11.10;3.53;;;14.20;99.90;;;;;;5060407;28;20049;-36
2022/05/27 01:29:42;;;;;;;12.77;3.63;;;14.10;99.90;;;;;;5069581;28;20049;-36
2022/05/27 01:32:11;;;;;;;14.43;4.15;;;14.10;99.90;;;;;;5054857;28;20049;-36
2022/05/27 01:34:43;;;;;;;9.73;3.20;;;14.10;99.90;;;;;;5070914;28;20416;-36
2022/05/27 01:37:12;;;;;;;11.48;3.10;;;14.10;99.90;;;;;;5058662;28;20049;-36
2022/05/27 01:39:41;;;;;;;10.35;3.17;;;14.10;99.90;;;;;;5058287;28;20048;-36
2022/05/27 01:42:11;;;;;;;14.35;3.72;;;14.10;99.90;;;;;;5070319;28;20052;-36
2022/05/27 01:44:41;;;;;;;14.07;2.90;;;14.00;99.90;;;;;;5072833;28;20151;-36
2022/05/27 01:47:10;;;;;;;12.57;3.40;;;14.00;99.90;;;;;;5063245;28;20049;-36
2022/05/27 01:49:38;;;;;;;16.45;2.97;;;14.00;99.90;;;;;;5054974;28;20047;-36
2022/05/27 01:52:07;;;;;;;14.25;3.50;;;13.90;99.90;;;;;;5072527;28;20050;-35
2022/05/27 01:54:39;;;;;;;13.60;3.80;;;13.90;99.90;;;;;;5065954;28;20049;-36
2022/05/27 01:57:07;;;;;;;12.43;3.78;;;13.90;99.90;;;;;;5053456;28;20254;-35
2022/05/27 01:59:39;;;;;;;14.82;3.75;;;13.90;99.90;;;;;;5058440;28;20148;-35
2022/05/27 02:02:08;;;;;;;16.05;3.90;;;13.90;99.90;;;;;;5066298;28;20455;-36
2022/05/27 02:04:38;;;;;;;16.25;3.90;;;13.90;99.90;;;;;;5069991;28;20076;-36
2022/05/27 02:07:06;;;;;;;11.40;3.20;;;13.90;99.90;;;;;;5068127;28;20049;-36
2022/05/27 02:09:35;;;;;;;20.05;4.10;;;13.80;99.90;;;;;;5062112;28;20063;-36
2022/05/27 02:12:15;;;;;;;17.80;4.35;;;13.90;99.90;;;;;;5055366;28;20114;-35
2022/05/27 02:14:44;;;;;;;19.17;3.55;;;13.80;99.90;;;;;;5072132;28;20051;-36
2022/05/27 02:17:16;;;;;;;14.43;3.42;;;13.80;99.90;;;;;;5074034;28;20499;-36
2022/05/27 02:19:46;;;;;;;13.27;3.30;;;13.80;99.90;;;;;;5054546;28;20553;-36
2022/05/27 02:22:14;;;;;;;18.13;3.33;;;13.80;99.90;;;;;;5054540;28;20049;-36
2022/05/27 02:24:43;;;;;;;22.40;3.72;;;13.80;99.90;;;;;;5077547;28;20053;-35
2022/05/27 02:27:13;;;;;;;19.10;4.03;;;13.80;99.90;;;;;;5058821;28;20055;-35
2022/05/27 02:29:40;;;;;;;18.65;3.83;;;13.70;99.90;;;;;;5062770;28;20063;-36
2022/05/27 02:32:08;;;;;;;15.68;3.00;;;13.70;99.90;;;;;;5054169;28;20063;-35
2022/05/27 02:37:25;;;;;;;16.75;3.35;;;13.70;99.90;;;;;;5064999;28;20045;-36
2022/05/27 02:39:53;;;;;;;16.08;3.17;;;13.60;99.90;;;;;;5054218;28;20067;-35
2022/05/27 02:42:24;;;;;;;17.35;3.25;;;13.60;99.90;;;;;;5067039;28;20053;-35
2022/05/27 02:44:52;;;;;;;21.02;3.63;;;13.60;99.90;;;;;;5053188;28;20055;-35
2022/05/27 02:47:23;;;;;;;20.35;3.55;;;13.50;99.90;;;;;;5068455;28;20067;-34
2022/05/27 02:49:55;;;;;;;21.98;3.75;;;13.50;99.90;;;;;;5072337;28;20052;-34
2022/05/27 02:52:26;;;;;;;;;;;13.50;99.90;;;;;;5072526;28;20079;-34
2022/05/27 02:54:56;;;;;;;14.77;3.37;;;13.40;99.90;;;;;;5063835;28;19971;-35
2022/05/27 02:57:25;;;;;;;24.55;3.63;;;13.40;99.90;;;;;;5068655;28;20311;-35
2022/05/27 02:59:52;;;;;;;15.65;3.78;;;13.40;99.90;;;;;;5057410;28;20053;-35
2022/05/27 03:02:19;;;;;;;19.85;4.10;;;13.40;99.90;;;;;;5057044;28;20136;-36
2022/05/27 03:04:50;;;;;;;15.57;3.28;;;13.40;99.90;;;;;;5071453;28;20056;-36
2022/05/27 03:07:30;;;;;;;21.77;3.75;;;13.40;99.90;;;;;;5060722;28;20074;-35
2022/05/27 03:10:02;;;;;;;11.82;2.92;;;13.40;99.90;;;;;;5071019;28;20135;-36
2022/05/27 03:12:38;;;;;;;13.57;4.22;;;13.40;99.90;;;;;;5059832;28;20053;-36
2022/05/27 03:15:26;;;;;;;18.27;3.97;;;13.40;99.90;;;;;;5068280;28;20069;-36
2022/05/27 03:18:02;;;;;;;17.85;3.40;;;13.40;99.90;;;;;;5065368;28;20152;-36
2022/05/27 03:20:35;;;;;;;18.58;3.95;;;13.40;99.90;;;;;;5055234;28;20049;-35
2022/05/27 03:23:09;;;;;;;16.83;4.07;;;13.40;99.90;;;;;;5059191;28;20131;-35
2022/05/27 03:25:38;;;;;;;19.10;3.85;;;13.40;99.90;;;;;;5068054;28;20069;-35
2022/05/27 03:28:09;;;;;;;17.27;3.83;;;13.40;99.90;;;;;;5052768;28;20408;-33
2022/05/27 03:30:38;;;;;;;16.65;3.83;;;13.40;99.90;;;;;;5069479;28;20415;-34
2022/05/27 03:33:08;;;;;;;13.82;3.30;;;13.30;99.90;;;;;;5070263;28;20048;-35
2022/05/27 03:35:36;;;;;;;16.15;4.30;;;13.40;99.90;;;;;;5072137;28;20049;-35
2022/05/27 03:38:07;;;;;;;14.20;3.70;;;13.30;99.90;;;;;;5066128;28;20485;-35
2022/05/27 03:40:36;;;;;;;16.77;4.50;;;13.30;99.90;;;;;;5053427;28;20048;-35
2022/05/27 03:43:02;;;;;;;15.05;3.65;;;13.30;99.90;;;;;;5062028;28;20045;-35
2022/05/27 03:45:29;;;;;;;13.90;3.83;;;13.30;99.90;;;;;;5059859;28;20059;-35
2022/05/27 03:47:56;;;;;;;19.17;3.90;;;13.30;99.90;;;;;;5059092;28;20041;-34
2022/05/27 03:50:24;;;;;;;13.38;3.42;;;13.30;99.90;;;;;;5061977;28;20048;-35
2022/05/27 03:52:52;;;;;;;17.58;4.60;;;13.30;99.90;;;;;;5053107;28;20128;-34
2022/05/27 03:55:21;;;;;;;14.80;3.05;;;13.30;99.90;;;;;;5070465;28;20047;-34
2022/05/27 03:57:48;;;;;;;14.85;3.50;;;13.30;99.90;;;;;;5052395;28;20493;-34
2022/05/27 04:00:16;;;;;;;16.42;4.25;;;13.30;99.90;;;;;;5052840;28;20053;-34
2022/05/27 04:02:43;;;;;;;17.48;3.83;;;13.30;99.90;;;;;;5059772;28;20052;-35
2022/05/27 04:05:10;;;;;;;20.63;4.63;;;13.30;99.90;;;;;;5080535;28;20048;-34
2022/05/27 04:07:37;;;;;;;12.27;3.67;;;13.30;99.90;;;;;;5069660;28;20055;-35
2022/05/27 04:10:04;;;;;;;17.30;3.90;;;13.30;99.90;;;;;;5072210;28;20124;-35
2022/05/27 04:12:32;;;;;;;18.52;3.65;;;13.30;99.90;;;;;;5068898;28;20055;-34
2022/05/27 04:14:59;;;;;;;18.52;3.88;;;13.40;99.90;;;;;;5053470;28;20080;-35
2022/05/27 04:17:30;;;;;;;15.63;3.40;;;13.40;99.90;;;;;;5059108;28;20052;-35
2022/05/27 04:19:57;;;;;;;14.68;3.63;;;13.40;99.90;;;;;;5068981;28;20142;-36
2022/05/27 04:22:24;;;;;;;18.63;3.55;;;13.40;99.90;;;;;;5057236;28;20505;-36
2022/05/27 04:24:50;;;;;;;17.15;3.25;;;13.30;99.90;;;;;;5067282;28;20052;-36
2022/05/27 04:27:18;;;;;;;20.23;3.42;;;13.30;99.90;;;;;;5055549;28;20057;-36
2022/05/27 04:29:47;;;;;;;19.83;4.20;;;13.40;99.90;;;;;;5064472;28;20052;-36
2022/05/27 04:32:14;;;;;;;25.08;4.82;;;13.30;99.90;;;;;;5063287;28;20045;-36
2022/05/27 04:34:41;;;;;;;17.60;3.45;;;13.40;99.90;;;;;;5071360;28;20050;-36
2022/05/27 04:37:07;;;;;;;20.52;3.58;;;13.30;99.90;;;;;;5055408;28;20061;-36
2022/05/27 04:39:34;;;;;;;23.77;3.83;;;13.40;99.90;;;;;;5052052;28;20053;-36
2022/05/27 04:42:01;;;;;;;20.63;3.63;;;13.30;99.90;;;;;;5054133;28;20048;-36
2022/05/27 04:44:28;;;;;;;21.42;3.95;;;13.30;99.90;;;;;;5066651;28;20489;-36
2022/05/27 04:46:56;;;;;;;23.65;4.05;;;13.30;99.90;;;;;;5052333;28;20059;-36
2022/05/27 04:52:07;;;;;;;19.17;3.63;;;13.30;99.90;;;;;;5052184;28;20497;-36
2022/05/27 04:54:34;;;;;;;17.98;3.65;;;13.30;99.90;;;;;;5067470;28;20052;-36
2022/05/27 04:57:00;;;;;;;13.55;3.25;;;13.20;99.90;;;;;;5063963;28;20083;-36
2022/05/27 04:59:27;;;;;;;15.40;2.90;;;13.20;99.90;;;;;;5066941;28;20497;-36
2022/05/27 05:01:55;;;;;;;15.95;3.30;;;13.20;99.90;;;;;;5062213;28;20052;-36
2022/05/27 05:04:22;;;;;;;17.13;3.15;;;13.20;99.90;;;;;;5056065;28;20400;-36
2022/05/27 05:06:49;;;;;;;19.35;3.58;;;13.20;99.90;;;;;;5063874;28;20049;-36
2022/05/27 05:09:15;;;;;;;15.73;3.45;;;13.20;99.90;;;;;;5060039;28;20051;-36
2022/05/27 05:11:42;;;;;;;12.50;2.80;;;13.20;99.90;;;;;;5071946;28;20129;-36
2022/05/27 05:14:09;;;;;;;15.45;3.25;;;13.20;99.90;;;;;;5066319;28;20417;-34
2022/05/27 05:16:35;;;;;;;17.65;3.72;;;13.20;99.90;;;;;;5070945;28;20060;-35
2022/05/27 05:19:04;;;;;;;21.67;3.95;;;13.20;99.90;;;;;;5072245;28;20493;-35
2022/05/27 05:21:31;;;;;;;26.48;3.90;;;13.30;99.90;;;;;;5055580;28;20060;-35
2022/05/27 05:23:58;;;;;;;9.50;3.17;;;13.30;99.90;;;;;;5068800;28;20060;-35
2022/05/27 05:26:25;;;;;;;19.58;3.67;;;13.30;99.90;;;;;;5068076;28;20055;-35
2022/05/27 05:28:52;;;;;;;19.10;3.88;;;13.30;99.90;;;;;;5063259;28;20499;-35
2022/05/27 05:31:18;;;;;;;22.02;3.47;;;13.40;99.90;;;;;;5058968;28;20071;-35
2022/05/27 05:33:45;;;;;;;17.30;3.58;;;13.40;99.90;;;;;;5054889;28;20048;-36
2022/05/27 05:36:13;;;;;;;18.02;3.40;;;13.50;99.90;;;;;;5057134;28;20507;-35
2022/05/27 05:38:40;;;;;;;18.33;3.85;;;13.50;99.90;;;;;;5066821;28;20150;-35
2022/05/27 05:41:07;;;;;;;17.77;3.25;;;13.60;99.90;;;;;;5062131;28;20048;-35
2022/05/27 05:43:34;;;;;;;18.63;3.30;;;13.70;99.90;;;;;;5055520;28;20136;-36
2022/05/27 05:46:01;;;;;;;18.58;2.78;;;13.70;99.90;;;;;;5054036;28;20049;-35
2022/05/27 05:48:28;;;;;;;15.77;2.70;;;13.70;99.90;;;;;;5055252;28;20412;-35
2022/05/27 05:50:54;;;;;;;13.68;3.08;;;13.80;99.90;;;;;;5074798;28;20396;-36
2022/05/27 05:53:22;;;;;;;16.45;3.28;;;13.70;99.90;;;;;;5062027;28;20041;-35
2022/05/27 05:55:49;;;;;;;19.20;3.70;;;13.70;99.90;;;;;;5078631;28;20313;-36
2022/05/27 05:58:16;;;;;;;18.02;3.05;;;13.70;99.90;;;;;;5054476;28;20060;-36
2022/05/27 06:00:42;;;;;;;18.77;3.08;;;13.80;99.90;;;;;;5074933;28;20049;-35
2022/05/27 06:03:10;;;;;;;16.70;2.85;;;13.90;99.90;;;;;;5062926;28;20136;-35
2022/05/27 06:05:40;;;;;;;16.83;3.10;;;13.90;99.90;;;;;;5074543;28;20057;-35
2022/05/27 06:08:07;;;;;;;22.00;3.60;;;14.00;99.90;;;;;;5070888;28;20063;-35
2022/05/27 06:10:35;;;;;;;14.98;3.00;;;14.10;99.90;;;;;;5073808;28;20052;-35
2022/05/27 06:13:02;;;;;;;20.83;3.58;;;14.10;99.90;;;;;;5071576;28;20053;-36
2022/05/27 06:15:28;;;;;;;20.58;2.97;;;14.10;99.90;;;;;;5065765;28;20054;-35
2022/05/27 06:17:55;;;;;;;16.67;3.90;;;14.10;99.90;;;;;;5070908;28;20133;-35
2022/05/27 06:20:22;;;;;;;17.02;3.13;;;14.10;99.90;;;;;;5069247;28;20048;-35
2022/05/27 06:22:49;;;;;;;19.20;3.13;;;14.20;99.90;;;;;;5064866;28;20493;-35
2022/05/27 06:25:15;;;;;;;16.38;3.20;;;14.30;99.90;;;;;;5057047;28;20061;-35
2022/05/27 06:27:44;;;;;;;18.42;3.60;;;14.30;99.90;;;;;;5068287;28;20060;-35
2022/05/27 06:35:41;;;;;;;15.85;3.10;;;14.50;99.90;;;;;;5072344;28;20044;-35
2022/05/27 06:38:07;;;;;;;21.15;3.47;;;14.70;99.90;;;;;;5070832;28;20053;-35
2022/05/27 06:40:34;;;;;;;22.70;3.60;;;14.70;99.90;;;;;;5074086;28;20408;-34
2022/05/27 06:43:02;;;;;;;18.75;3.88;;;14.80;99.90;;;;;;5065311;28;20490;-34
2022/05/27 06:45:29;;;;;;;27.95;4.47;;;14.80;99.90;;;;;;5073995;28;20063;-34
2022/05/27 06:47:55;;;;;;;19.90;3.95;;;14.80;99.90;;;;;;5073118;28;20183;-34
2022/05/27 06:50:22;;;;;;;20.73;3.60;;;14.80;99.90;;;;;;5069965;28;20063;-34
2022/05/27 06:52:50;;;;;;;21.38;3.53;;;14.80;99.90;;;;;;5061464;28;20067;-35
2022/05/27 06:55:20;;;;;;;19.67;4.25;;;14.90;99.90;;;;;;5067144;28;20464;-35
2022/05/27 06:57:46;;;;;;;22.10;3.20;;;14.90;99.90;;;;;;5071470;28;20056;-35
2022/05/27 07:00:16;;;;;;;17.48;3.53;;;15.00;99.80;;;;;;5056748;28;20048;-35
2022/05/27 07:02:43;;;;;;;16.88;3.17;;;15.10;99.20;;;;;;5060544;28;20049;-35
2022/05/27 07:05:09;;;;;;;20.20;3.35;;;15.20;99.20;;;;;;5079201;28;20504;-35
2022/05/27 07:07:36;;;;;;;19.52;3.80;;;15.30;99.00;;;;;;5073218;28;20135;-35
2022/05/27 07:10:03;;;;;;;18.67;2.58;;;15.30;98.20;;;;;;5052893;28;20048;-34
2022/05/27 07:12:30;;;;;;;19.38;3.47;;;15.30;97.90;;;;;;5078761;28;20056;-34
2022/05/27 07:14:57;;;;;;;16.77;3.60;;;15.30;97.20;;;;;;5088459;28;20063;-34
2022/05/27 07:17:25;;;;;;;14.32;2.83;;;15.40;96.70;;;;;;5052667;28;20061;-34
2022/05/27 07:19:51;;;;;;;17.33;3.25;;;15.50;95.80;;;;;;5065291;28;20062;-34
2022/05/27 07:22:18;;;;;;;15.00;2.83;;;15.50;96.00;;;;;;5069212;28;20050;-35
2022/05/27 07:24:45;;;;;;;17.65;4.13;;;15.70;96.20;;;;;;5060564;28;20389;-35
2022/05/27 07:27:12;;;;;;;18.08;3.35;;;15.80;96.10;;;;;;5058264;28;20125;-35
2022/05/27 07:29:38;;;;;;;17.20;3.35;;;15.90;95.90;;;;;;5057616;28;20055;-34
2022/05/27 07:32:08;;;;;;;16.30;2.95;;;16.10;95.70;;;;;;5077429;28;20048;-34
2022/05/27 07:34:36;;;;;;;14.85;3.17;;;16.20;94.60;;;;;;5073056;28;20091;-35
2022/05/27 07:37:03;;;;;;;14.80;3.20;;;16.20;93.90;;;;;;5067527;28;20053;-35
2022/05/27 07:39:35;;;;;;;10.30;2.83;;;16.20;93.70;;;;;;5069263;28;20040;-34
2022/05/27 07:42:01;;;;;;;13.15;3.30;;;16.30;93.40;;;;;;5061757;28;20052;-35
2022/05/27 07:44:28;;;;;;;20.10;3.63;;;16.40;93.40;;;;;;5052819;28;20056;-35
2022/05/27 07:46:55;;;;;;;20.25;3.60;;;16.50;92.70;;;;;;5054824;28;20063;-35
2022/05/27 07:49:22;;;;;;;19.77;3.50;;;16.50;92.60;;;;;;5057998;28;20353;-35
2022/05/27 07:51:50;;;;;;;16.30;3.05;;;16.60;92.40;;;;;;5061210;28;20130;-35
2022/05/27 07:54:18;;;;;;;15.25;3.17;;;16.70;92.20;;;;;;5047900;28;20062;-35
2022/05/27 07:56:44;;;;;;;18.50;3.72;;;16.60;91.70;;;;;;5045879;28;20068;-35
2022/05/27 07:59:11;;;;;;;18.63;3.45;;;16.50;91.50;;;;;;5045811;28;20127;-35
2022/05/27 08:01:39;;;;;;;17.35;3.45;;;16.40;91.60;;;;;;5059010;28;20048;-35
2022/05/27 08:04:05;;;;;;;17.90;3.35;;;16.50;91.40;;;;;;5045989;28;20053;-35
2022/05/27 08:06:32;;;;;;;16.05;2.83;;;16.40;91.80;;;;;;5048951;28;20062;-35
2022/05/27 08:09:00;;;;;;;17.08;3.15;;;16.40;91.80;;;;;;5059546;28;20070;-34
2022/05/27 08:11:27;;;;;;;20.13;3.28;;;16.30;91.60;;;;;;5056652;28;21142;-35
2022/05/27 08:13:55;;;;;;;15.38;2.60;;;16.30;91.60;;;;;;5056182;28;20780;-35
2022/05/27 08:16:21;;;;;;;17.55;2.88;;;16.30;91.60;;;;;;5060937;28;20056;-36
2022/05/27 08:18:48;;;;;;;15.10;2.88;;;16.40;91.00;;;;;;5047616;28;20059;-34
2022/05/27 08:21:15;;;;;;;13.23;2.88;;;16.50;90.70;;;;;;5044568;28;20053;-34
2022/05/27 08:23:42;;;;;;;10.43;2.22;;;16.70;90.10;;;;;;5053642;28;20537;-35
2022/05/27 08:26:11;;;;;;;13.20;2.72;;;16.80;87.40;;;;;;5050289;28;20056;-35
2022/05/27 08:28:37;;;;;;;11.52;2.17;;;16.80;86.70;;;;;;5048923;28;20041;-35
2022/05/27 08:31:04;;;;;;;10.02;2.10;;;16.90;86.30;;;;;;5059404;28;21205;-35
2022/05/27 08:38:00;;;;;;;14.10;2.13;;;16.80;86.60;;;;;;5073408;28;20412;-36
2022/05/27 08:39:15;;;;;;;18.63;3.03;;;17.10;87.20;;;;;;5050579;28;20372;-35
2022/05/27 08:42:08;;;;;;;14.82;2.97;;;17.20;86.10;;;;;;5047983;28;20062;-35
2022/05/27 08:44:41;;;;;;;16.02;3.00;;;17.30;84.90;;;;;;5043034;28;20045;-35
2022/05/27 08:47:14;;;;;;;14.07;2.70;;;17.40;84.50;;;;;;5052828;28;20048;-35
2022/05/27 08:49:43;;;;;;;12.98;2.60;;;17.50;83.50;;;;;;5058439;28;20044;-34
2022/05/27 08:52:11;;;;;;;11.50;3.05;;;17.60;82.80;;;;;;5052575;28;20045;-34
2022/05/27 08:54:40;;;;;;;20.48;3.35;;;17.40;82.70;;;;;;5055060;28;20064;-35
2022/05/27 08:59:55;;;;;;;13.27;3.30;;;17.40;83.30;;;;;;5056550;28;20393;-35
2022/05/27 09:02:26;;;;;;;20.75;3.53;;;17.40;82.80;;;;;;5060746;28;20059;-35
2022/05/27 09:04:55;;;;;;;21.15;3.40;;;17.40;82.70;;;;;;5062214;28;20047;-35
2022/05/27 09:07:30;;;;;;;16.40;3.35;;;17.40;83.10;;;;;;5066773;28;20059;-35
2022/05/27 09:09:57;;;;;;;19.50;3.17;;;17.20;83.30;;;;;;5057176;28;20044;-36
2022/05/27 09:12:38;;;;;;;19.45;3.30;;;17.10;82.80;;;;;;5058726;28;20063;-36
2022/05/27 09:15:08;;;;;;;9.55;2.30;;;17.10;82.50;;;;;;5068992;28;20129;-35
2022/05/27 09:17:39;;;;;;;18.67;3.95;;;17.10;81.80;;;;;;5068467;28;20055;-35
2022/05/27 09:20:09;;;;;;;;;;;17.10;80.20;;;;;;5071788;28;20068;-35
2022/05/27 09:22:42;;;;;;;13.65;2.65;;;17.00;80.60;;;;;;5072396;28;19928;-36
2022/05/27 09:25:16;;;;;;;12.38;2.67;;;17.10;82.30;;;;;;5072966;28;20047;-35
2022/05/27 09:27:47;;;;;;;11.60;2.17;;;17.30;79.30;;;;;;5066178;28;20562;-35
2022/05/27 09:30:14;;;;;;;12.38;2.65;;;17.40;79.20;;;;;;5074408;28;20048;-35
2022/05/27 09:32:46;;;;;;;12.07;2.65;;;17.50;80.10;;;;;;5065193;28;20123;-35
2022/05/27 09:35:14;;;;;;;11.82;3.08;;;17.70;80.00;;;;;;5063667;28;20049;-36
2022/05/27 09:37:44;;;;;;;12.35;2.70;;;17.60;79.00;;;;;;5067143;28;20072;-35
2022/05/27 09:40:13;;;;;;;11.90;2.50;;;17.60;79.70;;;;;;5065761;28;20055;-35
2022/05/27 09:42:43;;;;;;;29.25;5.45;;;17.40;79.20;;;;;;5059024;28;20058;-35
2022/05/27 09:45:12;;;;;;;17.45;3.85;;;17.40;79.90;;;;;;5053598;28;20450;-36
2022/05/27 09:47:40;;;;;;;16.02;2.95;;;17.30;81.20;;;;;;5060256;28;20057;-35
2022/05/27 09:50:09;;;;;;;18.55;2.90;;;17.20;81.60;;;;;;5059027;28;20136;-35
2022/05/27 09:52:39;;;;;;;11.18;2.40;;;17.40;81.40;;;;;;5057048;28;20132;-35
2022/05/27 09:55:15;;;;;;;11.18;2.97;;;17.50;80.20;;;;;;5055083;28;20041;-35
2022/05/27 09:57:54;;;;;;;12.40;2.58;;;17.40;78.80;;;;;;5057155;28;20052;-35
2022/05/27 10:00:42;;;;;;;11.77;2.10;;;17.50;78.20;;;;;;5053742;28;20051;-36
2022/05/27 10:03:24;;;;;;;13.70;3.13;;;17.60;78.40;;;;;;5068181;28;20075;-34
2022/05/27 10:05:51;;;;;;;;;;;17.80;80.30;;;;;;5057208;28;21881;-35
2022/05/27 10:08:27;;;;;;;21.67;3.05;;;17.90;79.10;;;;;;5074868;28;20265;-34
2022/05/27 10:11:16;;;;;;;16.20;2.97;;;18.10;78.60;;;;;;5058176;28;20052;-34
2022/05/27 10:13:43;;;;;;;13.10;2.53;;;18.10;76.20;;;;;;5053299;28;20052;-34
2022/05/27 10:16:12;;;;;;;12.18;2.60;;;17.90;77.70;;;;;;5070461;28;20137;-35
2022/05/27 10:18:39;;;;;;;14.80;3.03;;;18.00;77.40;;;;;;5055072;28;20496;-35
2022/05/27 10:21:10;;;;;;;11.63;2.80;;;18.00;78.00;;;;;;5053658;28;20508;-34
2022/05/27 10:23:40;;;;;;;13.88;2.55;;;18.00;76.30;;;;;;5067783;28;20514;-34
2022/05/27 10:26:23;;;;;;;14.35;2.45;;;17.70;75.60;;;;;;5070581;28;20048;-34
2022/05/27 10:28:57;;;;;;;19.00;2.85;;;17.50;74.30;;;;;;5066438;28;20498;-34
2022/05/27 10:31:25;;;;;;;13.13;2.92;;;17.50;75.20;;;;;;5072204;28;20461;-34
2022/05/27 10:33:53;;;;;;;12.38;3.05;;;17.60;76.80;;;;;;5071375;28;20059;-34
2022/05/27 10:36:40;;;;;;;14.55;2.75;;;17.70;76.40;;;;;;5059060;28;20052;-34
2022/05/27 10:39:07;;;;;;;12.77;2.85;;;17.70;76.60;;;;;;5056239;28;20587;-34
2022/05/27 10:41:41;;;;;;;8.00;2.20;;;17.70;76.60;;;;;;5058772;28;20056;-35
2022/05/27 10:44:14;;;;;;;10.77;2.53;;;17.80;75.90;;;;;;5060952;28;20409;-33
2022/05/27 10:46:48;;;;;;;13.82;2.17;;;17.80;75.20;;;;;;5069795;28;20049;-34
2022/05/27 10:49:40;;;;;;;11.93;2.67;;;17.70;74.70;;;;;;5065380;28;20452;-34
2022/05/27 10:52:15;;;;;;;14.68;2.78;;;17.60;76.10;;;;;;5067852;28;20062;-34
2022/05/27 10:54:51;;;;;;;13.70;2.47;;;17.40;77.00;;;;;;5072306;28;20051;-34
2022/05/27 11:03:09;;;;;;;12.63;3.22;;;17.80;77.70;;;;;;5072584;28;20040;-34
2022/05/27 11:05:43;;;;;;;17.90;3.60;;;17.80;77.60;;;;;;5073298;28;20051;-34
2022/05/27 11:08:20;;;;;;;13.90;2.85;;;17.80;78.10;;;;;;5063691;28;20053;-34
2022/05/27 11:10:50;;;;;;;11.50;2.38;;;18.00;77.20;;;;;;5052309;28;20098;-34
2022/05/27 11:16:19;;;;;;;14.02;2.75;;;18.20;73.90;;;;;;5056159;28;20157;-34
2022/05/27 11:18:58;;;;;;;13.95;2.95;;;18.00;75.30;;;;;;5068054;28;20051;-34
2022/05/27 11:21:34;;;;;;;12.77;2.92;;;18.00;75.70;;;;;;5054556;28;20076;-34
2022/05/27 11:24:08;;;;;;;14.63;3.33;;;18.00;76.80;;;;;;5063364;28;20044;-34
2022/05/27 11:26:39;;;;;;;10.40;2.47;;;18.20;75.70;;;;;;5069756;28;20055;-34
2022/05/27 11:29:15;;;;;;;12.55;2.80;;;18.20;74.90;;;;;;5066804;28;20378;-34
2022/05/27 11:31:48;;;;;;;15.02;2.78;;;18.00;75.20;;;;;;5071900;28;20059;-34
2022/05/27 11:34:22;;;;;;;15.57;3.20;;;17.70;76.10;;;;;;5061092;28;20053;-35
2022/05/27 11:37:12;;;;;;;14.18;2.63;;;17.80;77.30;;;;;;5052687;28;20084;-34
2022/05/27 11:39:53;;;;;;;14.82;2.90;;;17.90;76.20;;;;;;5051235;28;20088;-35
2022/05/27 11:42:30;;;;;;;13.95;2.60;;;18.00;77.20;;;;;;5065551;28;20455;-34
2022/05/27 11:45:01;;;;;;;11.23;2.80;;;18.00;76.70;;;;;;5064503;28;20059;-34
2022/05/27 11:47:40;;;;;;;8.75;2.22;;;17.90;76.00;;;;;;5072404;28;20420;-34
2022/05/27 11:50:17;;;;;;;14.82;2.45;;;18.00;75.00;;;;;;5071287;28;20087;-34
2022/05/27 11:52:53;;;;;;;11.60;2.53;;;18.00;74.70;;;;;;5088099;28;20054;-34
2022/05/27 11:55:30;;;;;;;10.82;2.50;;;18.00;73.60;;;;;;5091940;28;20051;-33
2022/05/27 11:58:05;;;;;;;16.23;2.60;;;17.90;73.30;;;;;;5077975;28;20066;-34
2022/05/27 12:00:42;;;;;;;19.73;3.25;;;17.80;74.50;;;;;;5071524;28;20652;-35
2022/05/27 12:03:12;;;;;;;16.90;2.80;;;17.80;75.70;;;;;;5071896;28;20048;-33
2022/05/27 12:05:41;;;;;;;13.63;3.13;;;18.10;76.20;;;;;;5065221;28;20055;-34
2022/05/27 12:08:27;;;;;;;17.77;2.75;;;18.30;76.10;;;;;;5072575;28;20074;-34
2022/05/27 12:10:55;;;;;;;15.68;3.13;;;18.50;76.30;;;;;;5091996;28;20076;-34
2022/05/27 12:13:25;;;;;;;18.13;3.10;;;18.50;76.60;;;;;;5089793;28;20062;-35
2022/05/27 12:15:53;;;;;;;16.45;2.67;;;18.40;75.90;;;;;;5060171;28;20051;-34
2022/05/27 12:18:22;;;;;;;16.50;3.05;;;18.30;74.40;;;;;;5057600;28;20102;-34
2022/05/27 12:20:50;;;;;;;12.95;3.33;;;18.10;74.40;;;;;;5065048;28;20132;-34
2022/05/27 12:23:16;;;;;;;12.60;2.65;;;18.00;74.70;;;;;;5062291;28;20109;-34
2022/05/27 12:25:45;;;;;;;13.95;3.00;;;17.90;75.60;;;;;;5057241;28;20055;-34
2022/05/27 12:28:14;;;;;;;18.67;3.35;;;18.00;75.20;;;;;;5057627;28;20126;-34
2022/05/27 12:30:41;;;;;;;15.02;3.40;;;17.90;74.80;;;;;;5057405;28;20049;-34
2022/05/27 12:33:10;;;;;;;17.45;3.13;;;17.90;75.10;;;;;;5056864;28;20055;-35
2022/05/27 12:35:47;;;;;;;13.45;3.33;;;17.80;75.00;;;;;;5054211;28;20053;-34
2022/05/27 12:38:16;;;;;;;19.25;4.35;;;17.80;74.90;;;;;;5071278;28;20124;-34
2022/05/27 12:40:46;;;;;;;16.40;3.30;;;17.90;75.50;;;;;;5069500;28;20125;-34
2022/05/27 12:43:28;;;;;;;16.30;3.05;;;18.00;76.60;;;;;;5064218;28;20484;-35
2022/05/27 12:45:56;;;;;;;20.17;3.22;;;18.10;77.40;;;;;;5054674;28;21595;-34
2022/05/27 12:48:28;;;;;;;18.17;3.17;;;18.20;76.10;;;;;;5066272;28;20046;-35
2022/05/27 12:50:56;;;;;;;21.70;3.00;;;18.20;74.70;;;;;;5073786;28;20063;-35
2022/05/27 12:53:39;;;;;;;16.35;2.75;;;18.10;74.20;;;;;;5077721;28;20546;-34
2022/05/27 13:02:59;;;;;;;17.13;3.03;;;18.20;73.50;;;;;;5071765;28;20056;-35
2022/05/27 13:05:26;;;;;;;12.45;2.78;;;18.20;71.00;;;;;;4993655;28;20070;-35
2022/05/27 13:07:54;;;;;;;15.82;3.33;;;18.00;73.10;;;;;;5041782;28;20053;-34
2022/05/27 13:10:52;;;;;;;14.02;3.13;;;17.90;74.10;;;;;;5051929;28;20065;-34
2022/05/27 13:13:28;;;;;;;16.10;3.20;;;17.90;75.60;;;;;;4995931;28;20050;-34
2022/05/27 13:16:05;;;;;;;14.27;3.05;;;18.00;76.70;;;;;;5044692;28;20048;-34
2022/05/27 13:18:42;;;;;;;14.23;3.10;;;18.20;76.70;;;;;;5070822;28;20127;-34
2022/05/27 13:21:12;;;;;;;16.85;3.97;;;18.50;76.50;;;;;;5074686;28;20054;-34
2022/05/27 13:23:55;;;;;;;17.13;2.83;;;18.70;75.00;;;;;;5075595;28;20139;-34
2022/05/27 13:26:40;;;;;;;16.27;3.10;;;18.70;74.70;;;;;;5074597;28;20095;-34